sensor_id;sensor_type;location;lat;lon;timestamp;pressure;altitude;pressure_sealevel;temperature;humidity
14041;BME280;7095;51.388;6.196;2023-06-19T00:01:59;53202.91;;;-145.32;77.25
14041;BME280;7095;51.388;6.196;2023-06-19T00:04:28;53200.91;;;-145.32;77.38
14041;BME280;7095;51.388;6.196;2023-06-19T00:06:56;53183.00;;;-145.32;77.57
14041;BME280;7095;51.388;6.196;2023-06-19T00:09:42;53210.84;;;-145.32;77.35
14041;BME280;7095;51.388;6.196;2023-06-19T00:12:11;53226.75;;;-145.32;77.91
14041;BME280;7095;51.388;6.196;2023-06-19T00:14:40;53212.84;;;-145.32;79.09
14041;BME280;7095;51.388;6.196;2023-06-19T00:17:08;53216.81;;;-145.32;79.30
14041;BME280;7095;51.388;6.196;2023-06-19T00:19:37;53192.94;;;-145.32;79.80
14041;BME280;7095;51.388;6.196;2023-06-19T00:22:05;53212.84;;;-145.32;80.81
14041;BME280;7095;51.388;6.196;2023-06-19T00:24:34;53192.94;;;-145.32;81.51
14041;BME280;7095;51.388;6.196;2023-06-19T00:27:05;53216.81;;;-145.32;82.08
14041;BME280;7095;51.388;6.196;2023-06-19T00:29:33;53208.84;;;-145.32;82.23
14041;BME280;7095;51.388;6.196;2023-06-19T00:32:02;53192.94;;;-145.32;83.38
14041;BME280;7095;51.388;6.196;2023-06-19T00:34:30;53212.84;;;-145.32;84.60
14041;BME280;7095;51.388;6.196;2023-06-19T00:36:59;53238.69;;;-145.32;85.21
14041;BME280;7095;51.388;6.196;2023-06-19T00:39:27;53224.75;;;-145.32;86.85
14041;BME280;7095;51.388;6.196;2023-06-19T00:41:56;53224.75;;;-145.32;88.39
14041;BME280;7095;51.388;6.196;2023-06-19T00:44:26;53204.88;;;-145.32;89.91
14041;BME280;7095;51.388;6.196;2023-06-19T00:46:58;53212.84;;;-145.32;91.75
14041;BME280;7095;51.388;6.196;2023-06-19T00:49:29;53224.75;;;-145.32;93.49
14041;BME280;7095;51.388;6.196;2023-06-19T00:51:58;53236.69;;;-145.32;96.66
14041;BME280;7095;51.388;6.196;2023-06-19T00:54:27;53232.72;;;-145.32;98.76
14041;BME280;7095;51.388;6.196;2023-06-19T00:56:56;53248.63;;;-145.32;100.00
14041;BME280;7095;51.388;6.196;2023-06-19T00:59:26;53260.53;;;-145.32;100.00
14041;BME280;7095;51.388;6.196;2023-06-19T01:01:56;53246.63;;;-145.32;100.00
14041;BME280;7095;51.388;6.196;2023-06-19T01:04:24;53270.47;;;-145.32;100.00
14041;BME280;7095;51.388;6.196;2023-06-19T01:07:07;53324.16;;;-145.32;100.00
14041;BME280;7095;51.388;6.196;2023-06-19T01:09:44;53304.28;;;-145.32;100.00
14041;BME280;7095;51.388;6.196;2023-06-19T01:12:20;53308.25;;;-145.32;100.00
14041;BME280;7095;51.388;6.196;2023-06-19T01:14:57;53346.03;;;-145.32;100.00
14041;BME280;7095;51.388;6.196;2023-06-19T01:17:27;53304.28;;;-145.32;100.00
14041;BME280;7095;51.388;6.196;2023-06-19T01:19:57;53336.09;;;-145.32;100.00
14041;BME280;7095;51.388;6.196;2023-06-19T01:22:28;53320.19;;;-145.32;100.00
14041;BME280;7095;51.388;6.196;2023-06-19T01:25:01;53342.06;;;-145.32;100.00
14041;BME280;7095;51.388;6.196;2023-06-19T01:27:31;53361.94;;;-145.32;100.00
14041;BME280;7095;51.388;6.196;2023-06-19T01:30:02;53375.84;;;-145.32;100.00
14041;BME280;7095;51.388;6.196;2023-06-19T01:32:44;53385.78;;;-145.32;100.00
14041;BME280;7095;51.388;6.196;2023-06-19T01:35:19;53383.78;;;-145.32;100.00
14041;BME280;7095;51.388;6.196;2023-06-19T01:37:50;53363.91;;;-145.32;100.00
14041;BME280;7095;51.388;6.196;2023-06-19T01:40:21;53373.84;;;-145.32;100.00
14041;BME280;7095;51.388;6.196;2023-06-19T01:42:53;53359.94;;;-145.32;100.00
14041;BME280;7095;51.388;6.196;2023-06-19T01:45:23;53395.72;;;-145.32;100.00
14041;BME280;7095;51.388;6.196;2023-06-19T01:47:52;53455.38;;;-145.32;100.00
14041;BME280;7095;51.388;6.196;2023-06-19T01:50:21;53427.53;;;-145.32;100.00
14041;BME280;7095;51.388;6.196;2023-06-19T01:52:52;53449.41;;;-145.32;100.00
14041;BME280;7095;51.388;6.196;2023-06-19T01:55:21;53423.56;;;-145.32;100.00
14041;BME280;7095;51.388;6.196;2023-06-19T01:57:49;53447.41;;;-145.32;100.00
14041;BME280;7095;51.388;6.196;2023-06-19T02:00:18;53421.56;;;-145.32;100.00
14041;BME280;7095;51.388;6.196;2023-06-19T02:02:47;53439.47;;;-145.32;100.00
14041;BME280;7095;51.388;6.196;2023-06-19T02:05:17;53455.38;;;-145.32;100.00
14041;BME280;7095;51.388;6.196;2023-06-19T02:07:46;53443.44;;;-145.32;100.00
14041;BME280;7095;51.388;6.196;2023-06-19T02:10:17;53439.47;;;-145.32;100.00
14041;BME280;7095;51.388;6.196;2023-06-19T02:12:45;53439.47;;;-145.32;100.00
14041;BME280;7095;51.388;6.196;2023-06-19T02:15:14;53437.47;;;-145.32;100.00
14041;BME280;7095;51.388;6.196;2023-06-19T02:17:42;53459.34;;;-145.32;100.00
14041;BME280;7095;51.388;6.196;2023-06-19T02:20:11;53443.44;;;-145.32;100.00
14041;BME280;7095;51.388;6.196;2023-06-19T02:22:40;53437.47;;;-145.32;100.00
14041;BME280;7095;51.388;6.196;2023-06-19T02:25:09;53431.50;;;-145.32;100.00
14041;BME280;7095;51.388;6.196;2023-06-19T02:27:39;53443.44;;;-145.32;100.00
14041;BME280;7095;51.388;6.196;2023-06-19T02:30:08;53399.69;;;-145.32;100.00
14041;BME280;7095;51.388;6.196;2023-06-19T02:32:37;53399.69;;;-145.32;100.00
14041;BME280;7095;51.388;6.196;2023-06-19T02:35:08;53439.47;;;-145.32;100.00
14041;BME280;7095;51.388;6.196;2023-06-19T02:37:37;53445.44;;;-145.32;100.00
14041;BME280;7095;51.388;6.196;2023-06-19T02:40:08;53427.53;;;-145.32;100.00
14041;BME280;7095;51.388;6.196;2023-06-19T02:42:39;53459.34;;;-145.32;100.00
14041;BME280;7095;51.388;6.196;2023-06-19T02:45:08;53477.22;;;-145.32;100.00
14041;BME280;7095;51.388;6.196;2023-06-19T02:47:39;53439.47;;;-145.32;100.00
14041;BME280;7095;51.388;6.196;2023-06-19T02:50:09;53471.28;;;-145.32;100.00
14041;BME280;7095;51.388;6.196;2023-06-19T02:52:38;53517.00;;;-145.32;100.00
14041;BME280;7095;51.388;6.196;2023-06-19T02:55:07;53526.94;;;-145.32;100.00
14041;BME280;7095;51.388;6.196;2023-06-19T02:57:35;53550.78;;;-145.32;100.00
14041;BME280;7095;51.388;6.196;2023-06-19T03:00:07;53586.56;;;-145.32;100.00
14041;BME280;7095;51.388;6.196;2023-06-19T03:02:36;53598.50;;;-145.32;100.00
14041;BME280;7095;51.388;6.196;2023-06-19T03:05:12;53684.00;;;-145.32;100.00
14041;BME280;7095;51.388;6.196;2023-06-19T03:07:42;53787.38;;;-145.32;100.00
14041;BME280;7095;51.388;6.196;2023-06-19T03:10:10;53854.97;;;-145.32;100.00
14041;BME280;7095;51.388;6.196;2023-06-19T03:12:39;53944.47;;;-145.32;100.00
14041;BME280;7095;51.388;6.196;2023-06-19T03:15:09;54067.75;;;-145.32;100.00
14041;BME280;7095;51.388;6.196;2023-06-19T03:17:44;54143.28;;;-145.32;100.00
14041;BME280;7095;51.388;6.196;2023-06-19T03:20:12;54191.03;;;-145.32;100.00
14041;BME280;7095;51.388;6.196;2023-06-19T03:22:49;54270.56;;;-145.32;100.00
14041;BME280;7095;51.388;6.196;2023-06-19T03:25:18;54371.97;;;-145.32;100.00
14041;BME280;7095;51.388;6.196;2023-06-19T03:27:48;54403.78;;;-145.32;100.00
14041;BME280;7095;51.388;6.196;2023-06-19T03:30:18;54473.41;;;-145.32;100.00
14041;BME280;7095;51.388;6.196;2023-06-19T03:32:50;54495.28;;;-145.32;100.00
14041;BME280;7095;51.388;6.196;2023-06-19T03:35:35;54596.69;;;-145.32;100.00
14041;BME280;7095;51.388;6.196;2023-06-19T03:38:04;54618.56;;;-145.32;100.00
14041;BME280;7095;51.388;6.196;2023-06-19T03:40:34;54755.78;;;-145.32;100.00
14041;BME280;7095;51.388;6.196;2023-06-19T03:43:08;54821.41;;;-145.32;100.00
14041;BME280;7095;51.388;6.196;2023-06-19T03:45:40;54976.56;;;-145.32;100.00
14041;BME280;7095;51.388;6.196;2023-06-19T03:48:08;55105.84;;;-145.32;100.00
14041;BME280;7095;51.388;6.196;2023-06-19T03:50:37;55292.81;;;-145.32;100.00
14041;BME280;7095;51.388;6.196;2023-06-19T03:53:07;55430.06;;;-145.32;100.00
14041;BME280;7095;51.388;6.196;2023-06-19T03:55:35;55619.03;;;-145.32;100.00
14041;BME280;7095;51.388;6.196;2023-06-19T03:58:04;55985.09;;;-145.32;100.00
14041;BME280;7095;51.388;6.196;2023-06-19T04:00:33;55965.19;;;-145.32;100.00
14041;BME280;7095;51.388;6.196;2023-06-19T04:03:03;56448.69;;;-145.32;100.00
14041;BME280;7095;51.388;6.196;2023-06-19T04:05:31;56781.00;;;-145.32;100.00
14041;BME280;7095;51.388;6.196;2023-06-19T04:08:00;57218.81;;;-145.32;100.00
14041;BME280;7095;51.388;6.196;2023-06-19T04:10:28;57509.41;;;-145.32;100.00
14041;BME280;7095;51.388;6.196;2023-06-19T04:12:59;57971.22;;;-145.32;100.00
14041;BME280;7095;51.388;6.196;2023-06-19T04:15:30;58492.81;;;-145.32;100.00
14041;BME280;7095;51.388;6.196;2023-06-19T04:17:59;59225.56;;;-145.32;100.00
14041;BME280;7095;51.388;6.196;2023-06-19T04:20:31;59404.81;;;-145.32;100.00
14041;BME280;7095;51.388;6.196;2023-06-19T04:23:00;59715.50;;;-145.32;100.00
14041;BME280;7095;51.388;6.196;2023-06-19T04:25:29;60354.91;;;-145.32;100.00
14041;BME280;7095;51.388;6.196;2023-06-19T04:27:57;60651.72;;;-145.32;100.00
14041;BME280;7095;51.388;6.196;2023-06-19T04:30:26;61444.75;;;-145.32;100.00
14041;BME280;7095;51.388;6.196;2023-06-19T04:32:54;62752.22;;;-145.32;100.00
14041;BME280;7095;51.388;6.196;2023-06-19T04:35:23;62730.28;;;-145.32;100.00
14041;BME280;7095;51.388;6.196;2023-06-19T04:37:53;62656.53;;;-145.32;100.00
14041;BME280;7095;51.388;6.196;2023-06-19T04:40:22;62680.44;;;-145.32;100.00
14041;BME280;7095;51.388;6.196;2023-06-19T04:42:52;62600.72;;;-145.32;100.00
14041;BME280;7095;51.388;6.196;2023-06-19T04:45:22;62818.00;;;-145.32;100.00
14041;BME280;7095;51.388;6.196;2023-06-19T04:47:51;62433.28;;;-145.32;100.00
14041;BME280;7095;51.388;6.196;2023-06-19T04:50:20;61966.88;;;-145.32;100.00
14041;BME280;7095;51.388;6.196;2023-06-19T04:52:53;61488.59;;;-145.32;100.00
14041;BME280;7095;51.388;6.196;2023-06-19T04:55:22;61327.19;;;-145.32;100.00
14041;BME280;7095;51.388;6.196;2023-06-19T04:57:52;61544.38;;;-145.32;100.00
14041;BME280;7095;51.388;6.196;2023-06-19T05:00:22;61424.81;;;-145.32;100.00
14041;BME280;7095;51.388;6.196;2023-06-19T05:02:51;61165.78;;;-145.32;100.00
14041;BME280;7095;51.388;6.196;2023-06-19T05:05:20;60928.66;;;-145.32;100.00
14041;BME280;7095;51.388;6.196;2023-06-19T05:07:51;60811.13;;;-145.32;100.00
14041;BME280;7095;51.388;6.196;2023-06-19T05:10:21;60570.06;;;-145.32;100.00
14041;BME280;7095;51.388;6.196;2023-06-19T05:12:50;60444.53;;;-145.32;100.00
14041;BME280;7095;51.388;6.196;2023-06-19T05:15:18;60348.94;;;-145.32;100.00
14041;BME280;7095;51.388;6.196;2023-06-19T05:17:47;60197.53;;;-145.32;100.00
14041;BME280;7095;51.388;6.196;2023-06-19T05:20:16;59962.47;;;-145.32;100.00
14041;BME280;7095;51.388;6.196;2023-06-19T05:22:45;59631.84;;;-145.32;100.00
14041;BME280;7095;51.388;6.196;2023-06-19T05:25:13;59110.06;;;-145.32;100.00
14041;BME280;7095;51.388;6.196;2023-06-19T05:27:43;58751.66;;;-145.32;100.00
14041;BME280;7095;51.388;6.196;2023-06-19T05:30:12;58415.16;;;-145.32;100.00
14041;BME280;7095;51.388;6.196;2023-06-19T05:32:41;58162.31;;;-145.32;100.00
14041;BME280;7095;51.388;6.196;2023-06-19T05:35:09;57748.25;;;-145.32;100.00
14041;BME280;7095;51.388;6.196;2023-06-19T05:37:42;57750.25;;;-145.32;100.00
14041;BME280;7095;51.388;6.196;2023-06-19T05:40:11;57851.78;;;-145.32;100.00
14041;BME280;7095;51.388;6.196;2023-06-19T05:42:40;57704.47;;;-145.32;100.00
14041;BME280;7095;51.388;6.196;2023-06-19T05:45:11;57871.69;;;-145.32;100.00
14041;BME280;7095;51.388;6.196;2023-06-19T05:47:39;57668.66;;;-145.32;100.00
14041;BME280;7095;51.388;6.196;2023-06-19T05:50:09;57782.09;;;-145.32;100.00
14041;BME280;7095;51.388;6.196;2023-06-19T05:52:37;57841.81;;;-145.32;100.00
14041;BME280;7095;51.388;6.196;2023-06-19T05:55:10;57724.38;;;-145.32;100.00
14041;BME280;7095;51.388;6.196;2023-06-19T05:57:39;57521.34;;;-145.32;100.00
14041;BME280;7095;51.388;6.196;2023-06-19T06:00:09;57569.13;;;-145.32;100.00
14041;BME280;7095;51.388;6.196;2023-06-19T06:02:42;57688.53;;;-145.32;100.00
14041;BME280;7095;51.388;6.196;2023-06-19T06:05:11;57724.38;;;-145.32;100.00
14041;BME280;7095;51.388;6.196;2023-06-19T06:07:40;57678.59;;;-145.32;100.00
14041;BME280;7095;51.388;6.196;2023-06-19T06:10:09;57622.84;;;-145.32;100.00
14041;BME280;7095;51.388;6.196;2023-06-19T06:12:38;57469.59;;;-145.32;100.00
14041;BME280;7095;51.388;6.196;2023-06-19T06:15:07;57581.06;;;-145.32;100.00
14041;BME280;7095;51.388;6.196;2023-06-19T06:17:36;57762.19;;;-145.32;100.00
14041;BME280;7095;51.388;6.196;2023-06-19T06:20:07;58058.81;;;-145.32;100.00
14041;BME280;7095;51.388;6.196;2023-06-19T06:22:40;58711.81;;;-145.32;100.00
14041;BME280;7095;51.388;6.196;2023-06-19T06:25:09;59311.22;;;-145.32;100.00
14041;BME280;7095;51.388;6.196;2023-06-19T06:27:40;60054.09;;;-145.32;100.00
14041;BME280;7095;51.388;6.196;2023-06-19T06:30:10;62084.47;;;-145.32;100.00
14041;BME280;7095;51.388;6.196;2023-06-19T06:32:39;64951.75;;;-145.32;100.00
14041;BME280;7095;51.388;6.196;2023-06-19T06:35:10;67398.22;;;-145.32;100.00
14041;BME280;7095;51.388;6.196;2023-06-19T06:37:38;70044.22;;;-145.32;100.00
14041;BME280;7095;51.388;6.196;2023-06-19T06:40:08;71073.22;;;-145.32;100.00
14041;BME280;7095;51.388;6.196;2023-06-19T06:42:38;73490.06;;;-145.32;100.00
14041;BME280;7095;51.388;6.196;2023-06-19T06:45:07;73490.06;;;-145.32;100.00
14041;BME280;7095;51.388;6.196;2023-06-19T06:47:36;72466.34;;;-145.32;100.00
14041;BME280;7095;51.388;6.196;2023-06-19T06:50:09;70615.63;;;-145.32;100.00
14041;BME280;7095;51.388;6.196;2023-06-19T06:52:38;69828.47;;;-145.32;100.00
14041;BME280;7095;51.388;6.196;2023-06-19T06:55:07;70072.19;;;-145.32;100.00
14041;BME280;7095;51.388;6.196;2023-06-19T06:57:36;66709.59;;;-145.32;100.00
14041;BME280;7095;51.388;6.196;2023-06-19T07:00:06;64500.97;;;-145.32;100.00
14041;BME280;7095;51.388;6.196;2023-06-19T07:02:37;63501.84;;;-145.32;100.00
14041;BME280;7095;51.388;6.196;2023-06-19T07:05:10;62991.44;;;-145.32;100.00
14041;BME280;7095;51.388;6.196;2023-06-19T07:07:38;61743.66;;;-145.32;100.00
14041;BME280;7095;51.388;6.196;2023-06-19T07:10:08;60709.50;;;-145.32;100.00
14041;BME280;7095;51.388;6.196;2023-06-19T07:12:44;61074.13;;;-145.32;100.00
14041;BME280;7095;51.388;6.196;2023-06-19T07:15:13;59964.47;;;-145.32;100.00
14041;BME280;7095;51.388;6.196;2023-06-19T07:17:42;59607.94;;;-145.32;100.00
14041;BME280;7095;51.388;6.196;2023-06-19T07:20:13;59313.19;;;-145.32;100.00
14041;BME280;7095;51.388;6.196;2023-06-19T07:22:42;58689.94;;;-145.32;100.00
14041;BME280;7095;51.388;6.196;2023-06-19T07:25:12;59020.47;;;-145.32;100.00
14041;BME280;7095;51.388;6.196;2023-06-19T07:27:40;58445.03;;;-145.32;100.00
14041;BME280;7095;51.388;6.196;2023-06-19T07:30:10;57555.19;;;-145.32;100.00
14041;BME280;7095;51.388;6.196;2023-06-19T07:32:42;57194.94;;;-145.32;100.00
14041;BME280;7095;51.388;6.196;2023-06-19T07:35:13;56952.13;;;-145.32;100.00
14041;BME280;7095;51.388;6.196;2023-06-19T07:37:41;56779.00;;;-145.32;100.00
14041;BME280;7095;51.388;6.196;2023-06-19T07:40:11;56377.06;;;-145.32;100.00
14041;BME280;7095;51.388;6.196;2023-06-19T07:42:40;56106.44;;;-145.32;100.00
14041;BME280;7095;51.388;6.196;2023-06-19T07:45:12;55833.88;;;-145.32;100.00
14041;BME280;7095;51.388;6.196;2023-06-19T07:47:41;55638.94;;;-145.32;100.00
14041;BME280;7095;51.388;6.196;2023-06-19T07:50:10;55583.22;;;-145.32;100.00
14041;BME280;7095;51.388;6.196;2023-06-19T07:52:40;55519.56;;;-145.32;100.00
14041;BME280;7095;51.388;6.196;2023-06-19T07:55:09;55615.06;;;-145.32;100.00
14041;BME280;7095;51.388;6.196;2023-06-19T07:57:37;55875.66;;;-145.32;100.00
14041;BME280;7095;51.388;6.196;2023-06-19T08:00:07;55979.13;;;-145.32;100.00
14041;BME280;7095;51.388;6.196;2023-06-19T08:02:38;56088.53;;;-145.32;100.00
14041;BME280;7095;51.388;6.196;2023-06-19T08:05:08;56082.56;;;-145.32;100.00
14041;BME280;7095;51.388;6.196;2023-06-19T08:07:37;55658.81;;;-145.32;100.00
14041;BME280;7095;51.388;6.196;2023-06-19T08:10:08;55513.59;;;-145.32;100.00
14041;BME280;7095;51.388;6.196;2023-06-19T08:12:42;55205.28;;;-145.32;100.00
14041;BME280;7095;51.388;6.196;2023-06-19T08:15:11;55046.16;;;-145.32;100.00
14041;BME280;7095;51.388;6.196;2023-06-19T08:17:41;55054.13;;;-145.32;100.00
14041;BME280;7095;51.388;6.196;2023-06-19T08:20:10;54855.22;;;-145.32;100.00
14041;BME280;7095;51.388;6.196;2023-06-19T08:22:38;54556.91;;;-145.32;100.00
14041;BME280;7095;51.388;6.196;2023-06-19T08:25:09;54505.22;;;-145.32;100.00
14041;BME280;7095;51.388;6.196;2023-06-19T08:27:37;54318.28;;;-145.32;100.00
14041;BME280;7095;51.388;6.196;2023-06-19T08:30:07;54220.84;;;-145.32;100.00
14041;BME280;7095;51.388;6.196;2023-06-19T08:32:35;54286.47;;;-145.32;100.00
14041;BME280;7095;51.388;6.196;2023-06-19T08:35:04;54169.16;;;-145.32;100.00
14041;BME280;7095;51.388;6.196;2023-06-19T08:37:33;53988.19;;;-145.32;100.00
14041;BME280;7095;51.388;6.196;2023-06-19T08:40:03;53934.50;;;-145.32;100.00
14041;BME280;7095;51.388;6.196;2023-06-19T08:42:37;53851.00;;;-145.32;100.00
14041;BME280;7095;51.388;6.196;2023-06-19T08:45:07;53723.75;;;-145.32;100.00
14041;BME280;7095;51.388;6.196;2023-06-19T08:47:39;53697.91;;;-145.32;100.00
14041;BME280;7095;51.388;6.196;2023-06-19T08:50:08;53652.19;;;-145.32;100.00
14041;BME280;7095;51.388;6.196;2023-06-19T08:52:36;53600.50;;;-145.32;100.00
14041;BME280;7095;51.388;6.196;2023-06-19T08:55:06;53646.22;;;-145.32;100.00
14041;BME280;7095;51.388;6.196;2023-06-19T08:57:37;53628.31;;;-145.32;100.00
14041;BME280;7095;51.388;6.196;2023-06-19T09:00:07;53562.72;;;-145.32;100.00
14041;BME280;7095;51.388;6.196;2023-06-19T09:02:40;53495.13;;;-145.32;100.00
14041;BME280;7095;51.388;6.196;2023-06-19T09:05:11;53511.03;;;-145.32;100.00
14041;BME280;7095;51.388;6.196;2023-06-19T09:07:41;53532.91;;;-145.32;100.00
14041;BME280;7095;51.388;6.196;2023-06-19T09:10:18;53495.13;;;-145.32;100.00
14041;BME280;7095;51.388;6.196;2023-06-19T09:12:58;53475.25;;;-145.32;100.00
14041;BME280;7095;51.388;6.196;2023-06-19T09:15:31;53489.16;;;-145.32;100.00
14041;BME280;7095;51.388;6.196;2023-06-19T09:18:05;53469.28;;;-145.32;100.00
14041;BME280;7095;51.388;6.196;2023-06-19T09:20:36;53449.41;;;-145.32;100.00
14041;BME280;7095;51.388;6.196;2023-06-19T09:23:06;53427.53;;;-145.32;100.00
14041;BME280;7095;51.388;6.196;2023-06-19T09:25:44;53385.78;;;-145.32;100.00
14041;BME280;7095;51.388;6.196;2023-06-19T09:28:22;53367.91;;;-145.32;100.00
14041;BME280;7095;51.388;6.196;2023-06-19T09:30:52;53348.00;;;-145.32;100.00
14041;BME280;7095;51.388;6.196;2023-06-19T09:33:21;53346.03;;;-145.32;100.00
14041;BME280;7095;51.388;6.196;2023-06-19T09:35:50;53320.19;;;-145.32;100.00
14041;BME280;7095;51.388;6.196;2023-06-19T09:38:21;53320.19;;;-145.32;100.00
14041;BME280;7095;51.388;6.196;2023-06-19T09:40:53;53340.06;;;-145.32;100.00
14041;BME280;7095;51.388;6.196;2023-06-19T09:43:25;53306.28;;;-145.32;100.00
14041;BME280;7095;51.388;6.196;2023-06-19T09:45:56;53300.31;;;-145.32;100.00
14041;BME280;7095;51.388;6.196;2023-06-19T09:48:28;53302.28;;;-145.32;99.37
14041;BME280;7095;51.388;6.196;2023-06-19T09:51:01;53288.38;;;-145.32;99.04
14041;BME280;7095;51.388;6.196;2023-06-19T09:53:30;53292.34;;;-145.32;97.62
14041;BME280;7095;51.388;6.196;2023-06-19T09:56:00;53312.22;;;-145.32;97.83
14041;BME280;7095;51.388;6.196;2023-06-19T09:58:30;53318.19;;;-145.32;98.68
14041;BME280;7095;51.388;6.196;2023-06-19T10:00:59;53286.38;;;-145.32;96.92
14041;BME280;7095;51.388;6.196;2023-06-19T10:03:32;53272.47;;;-145.32;91.06
14041;BME280;7095;51.388;6.196;2023-06-19T10:06:02;53284.41;;;-145.32;90.18
14041;BME280;7095;51.388;6.196;2023-06-19T10:08:39;53272.47;;;-145.32;82.65
14041;BME280;7095;51.388;6.196;2023-06-19T10:11:08;53264.53;;;-145.32;84.92
14041;BME280;7095;51.388;6.196;2023-06-19T10:13:40;53280.41;;;-145.32;85.66
14041;BME280;7095;51.388;6.196;2023-06-19T10:16:19;53238.69;;;-145.32;77.23
14041;BME280;7095;51.388;6.196;2023-06-19T10:18:50;53248.63;;;-145.32;76.50
14041;BME280;7095;51.388;6.196;2023-06-19T10:21:19;53238.69;;;-145.32;77.55
14041;BME280;7095;51.388;6.196;2023-06-19T10:23:54;53264.53;;;-145.32;82.71
14041;BME280;7095;51.388;6.196;2023-06-19T10:26:33;53242.66;;;-145.32;83.04
14041;BME280;7095;51.388;6.196;2023-06-19T10:29:13;53222.78;;;-145.32;75.09
14041;BME280;7095;51.388;6.196;2023-06-19T10:31:42;53236.69;;;-145.32;77.68
14041;BME280;7095;51.388;6.196;2023-06-19T10:34:12;53244.63;;;-145.32;76.97
14041;BME280;7095;51.388;6.196;2023-06-19T10:36:41;53212.84;;;-145.32;70.58
14041;BME280;7095;51.388;6.196;2023-06-19T10:39:10;53153.19;;;-145.32;61.96
14041;BME280;7095;51.388;6.196;2023-06-19T10:41:40;53181.03;;;-145.32;64.38
14041;BME280;7095;51.388;6.196;2023-06-19T10:44:10;53173.06;;;-145.32;62.50
14041;BME280;7095;51.388;6.196;2023-06-19T10:46:40;53179.03;;;-145.32;57.79
14041;BME280;7095;51.388;6.196;2023-06-19T10:49:09;53153.19;;;-145.32;56.09
14041;BME280;7095;51.388;6.196;2023-06-19T10:51:41;53159.16;;;-145.32;57.15
14041;BME280;7095;51.388;6.196;2023-06-19T10:54:11;53171.09;;;-145.32;54.08
14041;BME280;7095;51.388;6.196;2023-06-19T10:56:39;53161.16;;;-145.32;50.65
14041;BME280;7095;51.388;6.196;2023-06-19T10:59:12;53179.03;;;-145.32;51.62
14041;BME280;7095;51.388;6.196;2023-06-19T11:01:42;53165.13;;;-145.32;53.23
14041;BME280;7095;51.388;6.196;2023-06-19T11:04:13;53153.19;;;-145.32;55.12
14041;BME280;7095;51.388;6.196;2023-06-19T11:06:43;53147.22;;;-145.32;53.57
14041;BME280;7095;51.388;6.196;2023-06-19T11:09:12;53145.25;;;-145.32;55.35
14041;BME280;7095;51.388;6.196;2023-06-19T11:11:42;53165.13;;;-145.32;55.55
14041;BME280;7095;51.388;6.196;2023-06-19T11:14:14;53163.13;;;-145.32;54.50
14041;BME280;7095;51.388;6.196;2023-06-19T11:16:44;53169.09;;;-145.32;55.36
14041;BME280;7095;51.388;6.196;2023-06-19T11:19:15;53173.06;;;-145.32;54.93
14041;BME280;7095;51.388;6.196;2023-06-19T11:21:46;53145.25;;;-145.32;53.37
14041;BME280;7095;51.388;6.196;2023-06-19T11:24:16;53143.25;;;-145.32;52.00
14041;BME280;7095;51.388;6.196;2023-06-19T11:26:47;53153.19;;;-145.32;50.59
14041;BME280;7095;51.388;6.196;2023-06-19T11:29:21;53157.19;;;-145.32;46.58
14041;BME280;7095;51.388;6.196;2023-06-19T11:31:51;53115.44;;;-145.32;45.82
14041;BME280;7095;51.388;6.196;2023-06-19T11:34:31;53129.34;;;-145.32;44.15
14041;BME280;7095;51.388;6.196;2023-06-19T11:37:00;53115.44;;;-145.32;45.99
14041;BME280;7095;51.388;6.196;2023-06-19T11:39:29;53137.28;;;-145.32;46.54
14041;BME280;7095;51.388;6.196;2023-06-19T11:41:58;53149.22;;;-145.32;48.39
14041;BME280;7095;51.388;6.196;2023-06-19T11:44:29;53125.38;;;-145.32;45.36
14041;BME280;7095;51.388;6.196;2023-06-19T11:46:58;53133.31;;;-145.32;47.01
14041;BME280;7095;51.388;6.196;2023-06-19T11:49:27;53123.38;;;-145.32;46.72
14041;BME280;7095;51.388;6.196;2023-06-19T11:52:00;53109.47;;;-145.32;44.79
14041;BME280;7095;51.388;6.196;2023-06-19T11:54:30;53113.44;;;-145.32;44.39
14041;BME280;7095;51.388;6.196;2023-06-19T11:56:59;53097.53;;;-145.32;44.73
14041;BME280;7095;51.388;6.196;2023-06-19T11:59:29;53101.50;;;-145.32;45.26
14041;BME280;7095;51.388;6.196;2023-06-19T12:01:57;53099.53;;;-145.32;45.05
14041;BME280;7095;51.388;6.196;2023-06-19T12:04:27;53105.50;;;-145.32;43.88
14041;BME280;7095;51.388;6.196;2023-06-19T12:06:56;53093.56;;;-145.32;42.45
14041;BME280;7095;51.388;6.196;2023-06-19T12:09:24;53111.44;;;-145.32;42.58
14041;BME280;7095;51.388;6.196;2023-06-19T12:11:53;53085.63;;;-145.32;41.49
14041;BME280;7095;51.388;6.196;2023-06-19T12:14:21;53053.81;;;-145.32;41.93
14041;BME280;7095;51.388;6.196;2023-06-19T12:16:53;53113.44;;;-145.32;41.80
14041;BME280;7095;51.388;6.196;2023-06-19T12:19:22;53093.56;;;-145.32;41.84
14041;BME280;7095;51.388;6.196;2023-06-19T12:21:51;53083.63;;;-145.32;40.76
14041;BME280;7095;51.388;6.196;2023-06-19T12:24:20;53105.50;;;-145.32;40.31
14041;BME280;7095;51.388;6.196;2023-06-19T12:26:49;53071.69;;;-145.32;39.83
14041;BME280;7095;51.388;6.196;2023-06-19T12:29:18;53065.72;;;-145.32;39.42
14041;BME280;7095;51.388;6.196;2023-06-19T12:31:48;53127.34;;;-145.32;37.84
14041;BME280;7095;51.388;6.196;2023-06-19T12:34:17;53113.44;;;-145.32;37.46
14041;BME280;7095;51.388;6.196;2023-06-19T12:36:57;53105.50;;;-145.32;36.75
14041;BME280;7095;51.388;6.196;2023-06-19T12:39:26;53087.59;;;-145.32;36.69
14041;BME280;7095;51.388;6.196;2023-06-19T12:41:57;53049.84;;;-145.32;36.69
14041;BME280;7095;51.388;6.196;2023-06-19T12:44:25;53065.72;;;-145.32;36.01
14041;BME280;7095;51.388;6.196;2023-06-19T12:46:54;53065.72;;;-145.32;35.62
14041;BME280;7095;51.388;6.196;2023-06-19T12:49:27;53081.63;;;-145.32;35.40
14041;BME280;7095;51.388;6.196;2023-06-19T12:51:56;53071.69;;;-145.32;35.07
14041;BME280;7095;51.388;6.196;2023-06-19T12:54:25;53097.53;;;-145.32;35.22
14041;BME280;7095;51.388;6.196;2023-06-19T12:56:54;53101.50;;;-145.32;34.59
14041;BME280;7095;51.388;6.196;2023-06-19T12:59:23;53079.66;;;-145.32;34.37